Melrose, Minnesota
Current Conditions -  °F | °C
As of 2:13 AM on Monday 22 Dec 2014 (Local Time) from KD39 Reporting Station
Haze Haze  
Wind Chill: -3°   Ceiling: 300
Heat Index:   Visibility: 5mi
Dew Point:   Wind: 12mph
Humidity: 99%   Direction: 140°SE
Pressure: 29.59"   Gusts: 18mph
Location:  45.67°N, 94.81°W
Report Text: KD39 220813Z AUTO 14010G16KT 5SM BR OVC003 02/01 A2959 RMK AO2 T00150013
Loading
Personal Weather Stations






























Interactive Weather Map New forecast layout! Learn more

10-Day Weather Forecast

Advertisements
Track Severe Weather on mobile